createdAt,value
2022-09-13T00:03:11.581Z,1.80
2022-09-13T00:07:14.796Z,1.87
2022-09-13T00:11:18.061Z,1.70
2022-09-13T00:15:19.393Z,1.70
2022-09-13T00:19:20.646Z,1.97
2022-09-13T00:23:23.397Z,1.90
2022-09-13T00:27:24.609Z,1.83
2022-09-13T00:31:26.849Z,1.80
2022-09-13T00:35:28.268Z,2.07
2022-09-13T00:39:30.836Z,1.70
2022-09-13T00:43:41.729Z,1.50
2022-09-13T00:47:45.245Z,1.60
2022-09-13T00:51:48.988Z,1.80
2022-09-13T00:55:52.828Z,1.77
2022-09-13T00:59:57.449Z,1.83
2022-09-13T01:03:59.060Z,1.80
2022-09-13T01:08:00.724Z,1.60
2022-09-13T01:12:06.008Z,1.70
2022-09-13T01:16:07.555Z,1.83
2022-09-13T01:20:10.212Z,1.60
2022-09-13T01:24:19.596Z,1.90
2022-09-13T01:28:38.884Z,1.80
2022-09-13T01:32:49.864Z,1.50
2022-09-13T01:36:57.757Z,1.43
2022-09-13T01:41:05.641Z,1.70
2022-09-13T01:45:12.633Z,1.90
2022-09-13T01:49:20.154Z,1.67
2022-09-13T01:53:27.244Z,1.70
2022-09-13T01:57:31.260Z,1.90
2022-09-13T02:01:36.282Z,1.80
2022-09-13T02:05:40.868Z,1.70
2022-09-13T02:09:44.344Z,1.50
2022-09-13T02:13:47.604Z,1.50
2022-09-13T02:17:50.521Z,1.73
2022-09-13T02:21:56.288Z,1.70
2022-09-13T02:25:59.385Z,1.80
2022-09-13T02:30:02.840Z,1.50
2022-09-13T02:34:08.420Z,1.67
2022-09-13T02:38:13.204Z,1.40
2022-09-13T02:42:17.296Z,1.40
2022-09-13T02:46:26.107Z,1.70
2022-09-13T02:50:32.091Z,1.50
2022-09-13T02:54:40.176Z,1.60
2022-09-13T02:58:44.401Z,1.80
2022-09-13T03:02:46.892Z,1.80
2022-09-13T03:06:49.301Z,1.90
2022-09-13T03:11:07.934Z,1.83
2022-09-13T03:15:14.552Z,1.87
2022-09-13T03:19:27.985Z,1.80
2022-09-13T03:23:34.485Z,1.60
2022-09-13T03:27:38.082Z,1.50
2022-09-13T03:31:45.675Z,1.80
2022-09-13T03:35:52.587Z,2.00
2022-09-13T03:39:55.880Z,2.03
2022-09-13T03:43:58.756Z,2.87
2022-09-13T03:48:02.860Z,2.63
2022-09-13T03:52:04.281Z,2.43
2022-09-13T03:56:12.028Z,2.73
2022-09-13T04:00:14.092Z,3.27
2022-09-13T04:04:16.677Z,3.83
2022-09-13T04:08:18.096Z,3.47
2022-09-13T04:12:19.328Z,3.50
2022-09-13T04:16:20.679Z,3.60
2022-09-13T04:20:23.480Z,3.30
2022-09-13T04:24:25.380Z,3.10
2022-09-13T04:28:26.668Z,3.33
2022-09-13T04:32:27.944Z,3.10
2022-09-13T04:36:30.909Z,3.40
2022-09-13T04:40:32.416Z,3.70
2022-09-13T04:44:33.668Z,3.50
2022-09-13T04:48:34.871Z,3.50
2022-09-13T04:52:37.633Z,3.40
2022-09-13T04:56:39.163Z,3.53
2022-09-13T05:00:40.380Z,3.77
2022-09-13T05:04:41.668Z,3.43
2022-09-13T05:08:44.520Z,3.90
2022-09-13T05:12:45.993Z,3.40
2022-09-13T05:16:47.231Z,2.90
2022-09-13T05:20:48.628Z,2.90
2022-09-13T05:24:51.349Z,3.20
2022-09-13T05:28:52.840Z,2.77
2022-09-13T05:32:54.424Z,2.10
2022-09-13T05:36:55.644Z,2.27
2022-09-13T05:40:59.105Z,1.90
2022-09-13T05:45:00.592Z,1.87
2022-09-13T05:49:01.972Z,1.90
2022-09-13T05:53:03.279Z,1.90
2022-09-13T05:57:06.004Z,1.80
2022-09-13T06:01:07.479Z,2.20
2022-09-13T06:05:09.117Z,1.70
2022-09-13T06:09:10.568Z,2.27
2022-09-13T06:13:13.182Z,1.90
2022-09-13T06:17:14.700Z,1.80
2022-09-13T06:21:16.844Z,1.77
2022-09-13T06:25:18.265Z,2.60
2022-09-13T06:29:20.880Z,1.73
2022-09-13T06:33:22.108Z,1.63
2022-09-13T06:37:23.343Z,1.60
2022-09-13T06:41:24.813Z,2.43
2022-09-13T06:45:27.570Z,2.17
2022-09-13T06:49:28.956Z,1.77
2022-09-13T06:53:30.212Z,1.63
2022-09-13T06:57:32.080Z,1.83
2022-09-13T07:01:36.179Z,1.80
2022-09-13T07:05:37.676Z,1.40
2022-09-13T07:09:39.088Z,1.80
2022-09-13T07:13:40.484Z,1.53
2022-09-13T07:17:43.243Z,1.70
2022-09-13T07:21:44.561Z,1.87
2022-09-13T07:25:53.519Z,1.60
2022-09-13T07:29:54.948Z,1.80
2022-09-13T07:33:57.916Z,1.67
2022-09-13T07:37:59.344Z,1.60
2022-09-13T07:42:00.741Z,1.80
2022-09-13T07:46:02.852Z,1.87
2022-09-13T07:50:06.176Z,1.53
2022-09-13T07:54:09.680Z,1.67
2022-09-13T07:58:10.941Z,1.70
2022-09-13T08:02:12.616Z,1.27
2022-09-13T08:06:15.600Z,1.60
2022-09-13T08:10:16.871Z,1.20
2022-09-13T08:14:19.235Z,1.50
2022-09-13T08:18:20.844Z,1.50
2022-09-13T08:22:23.488Z,1.57
2022-09-13T08:26:24.696Z,1.67
2022-09-13T08:30:25.995Z,1.70
2022-09-13T08:34:28.172Z,2.33
2022-09-13T08:38:31.213Z,1.50
2022-09-13T08:42:39.635Z,1.77
2022-09-13T08:46:42.136Z,1.90
2022-09-13T08:50:43.962Z,1.50
2022-09-13T08:54:46.560Z,1.27
2022-09-13T08:59:02.067Z,1.50
2022-09-13T09:03:12.400Z,1.60
2022-09-13T09:07:16.955Z,1.33
2022-09-13T09:11:26.415Z,1.30
2022-09-13T09:15:29.310Z,1.30
2022-09-13T09:19:33.492Z,1.30
2022-09-13T09:23:36.903Z,1.60
2022-09-13T09:27:39.664Z,1.45
2022-09-13T09:31:44.451Z,1.50
2022-09-13T09:35:49.819Z,1.50
2022-09-13T09:39:52.173Z,1.52
2022-09-13T09:43:58.936Z,1.50
2022-09-13T09:48:02.215Z,1.60
2022-09-13T09:52:05.562Z,1.40
2022-09-13T09:56:19.914Z,1.98
2022-09-13T10:00:23.711Z,2.03
2022-09-13T10:04:25.147Z,1.55
2022-09-13T10:08:28.223Z,1.92
2022-09-13T10:12:31.011Z,1.48
2022-09-13T10:16:33.768Z,1.90
2022-09-13T10:20:35.143Z,1.80
2022-09-13T10:24:36.587Z,2.30
2022-09-13T10:28:42.656Z,2.60
2022-09-13T10:32:54.667Z,2.05
2022-09-13T10:36:58.335Z,2.55
2022-09-13T10:41:02.471Z,2.20
2022-09-13T10:45:05.178Z,2.53
2022-09-13T10:49:28.624Z,1.92
2022-09-13T10:53:32.379Z,2.00
2022-09-13T10:57:34.874Z,1.80
2022-09-13T11:01:40.833Z,1.67
2022-09-13T11:05:45.747Z,2.40
2022-09-13T11:09:52.275Z,1.73
2022-09-13T11:14:02.026Z,1.67
2022-09-13T11:18:10.143Z,1.70
2022-09-13T11:22:18.407Z,1.63
2022-09-13T11:26:27.467Z,1.70
2022-09-13T11:30:31.071Z,1.58
2022-09-13T11:34:36.571Z,1.52
2022-09-13T11:38:47.514Z,1.42
2022-09-13T11:42:55.537Z,1.30
2022-09-13T11:47:00.183Z,1.33
2022-09-13T11:51:04.041Z,1.33
2022-09-13T11:55:13.627Z,1.42
2022-09-13T11:59:20.291Z,1.60
2022-09-13T12:03:26.174Z,1.45
2022-09-13T12:07:35.326Z,1.23
2022-09-13T12:11:38.919Z,1.10
2022-09-13T12:15:41.549Z,1.30
2022-09-13T12:19:44.780Z,1.30
2022-09-13T12:23:49.992Z,1.40
2022-09-13T12:27:55.581Z,1.30
2022-09-13T12:31:59.385Z,1.40
2022-09-13T12:36:12.055Z,1.70
2022-09-13T12:40:26.554Z,1.42
2022-09-13T12:44:36.904Z,1.42
2022-09-13T12:49:01.455Z,1.40
2022-09-13T12:53:09.910Z,1.70
2022-09-13T12:57:17.914Z,1.50
2022-09-13T13:01:21.588Z,1.50
2022-09-13T13:05:25.658Z,1.27
2022-09-13T13:09:30.922Z,1.50
2022-09-13T13:13:36.366Z,1.80
2022-09-13T13:17:43.762Z,1.50
2022-09-13T13:21:45.206Z,1.58
2022-09-13T13:25:59.770Z,1.50
2022-09-13T13:30:19.675Z,1.83
2022-09-13T13:34:42.082Z,1.60
2022-09-13T13:38:48.826Z,1.70
2022-09-13T13:42:50.725Z,1.88
2022-09-13T13:46:54.402Z,1.70
2022-09-13T13:51:28.815Z,1.50
2022-09-13T13:55:39.383Z,1.80
2022-09-13T13:59:40.986Z,2.15
2022-09-13T14:03:49.813Z,1.75
2022-09-13T14:08:15.435Z,1.90
2022-09-13T14:12:21.082Z,2.03
2022-09-13T14:16:33.078Z,1.70
2022-09-13T14:20:38.443Z,1.55
2022-09-13T14:24:40.521Z,1.83
2022-09-13T14:28:43.486Z,1.73
2022-09-13T14:32:46.201Z,1.65
2022-09-13T14:36:51.255Z,1.73
2022-09-13T14:40:53.650Z,1.75
2022-09-13T14:44:56.269Z,1.95
2022-09-13T14:49:00.999Z,1.48
2022-09-13T14:53:03.615Z,1.88
2022-09-13T14:57:07.146Z,2.00
2022-09-13T15:01:12.416Z,1.70
2022-09-13T15:05:15.811Z,1.63
2022-09-13T15:09:27.962Z,1.73
2022-09-13T15:13:29.602Z,1.92
2022-09-13T15:17:50.462Z,2.30
2022-09-13T15:21:51.925Z,1.40
2022-09-13T15:25:54.425Z,1.98
2022-09-13T15:29:57.021Z,1.63
2022-09-13T15:34:12.267Z,1.80
2022-09-13T15:38:17.633Z,1.60
2022-09-13T15:42:19.097Z,2.00
2022-09-13T15:46:20.401Z,1.40
2022-09-13T15:50:24.466Z,1.80
2022-09-13T15:54:27.226Z,1.70
2022-09-13T15:58:29.470Z,1.63
2022-09-13T16:02:31.996Z,1.43
2022-09-13T16:06:34.781Z,1.70
2022-09-13T16:10:36.174Z,1.37
2022-09-13T16:14:37.591Z,1.50
2022-09-13T16:18:38.849Z,1.60
2022-09-13T16:22:41.654Z,1.53
2022-09-13T16:26:43.246Z,1.73
2022-09-13T16:30:44.574Z,1.93
2022-09-13T16:34:45.770Z,2.03
2022-09-13T16:38:48.561Z,1.93
2022-09-13T16:42:50.150Z,1.90
2022-09-13T16:46:51.436Z,2.30
2022-09-13T16:50:52.926Z,2.40
2022-09-13T16:54:55.633Z,2.33
2022-09-13T16:58:56.862Z,2.07
2022-09-13T17:02:58.185Z,1.93
2022-09-13T17:06:59.498Z,2.00
2022-09-13T17:11:04.454Z,2.00
2022-09-13T17:15:06.697Z,2.10
2022-09-13T17:19:11.149Z,2.60
2022-09-13T17:23:12.557Z,2.00
2022-09-13T17:27:15.333Z,2.20
2022-09-13T17:31:16.591Z,2.10
2022-09-13T17:35:18.037Z,2.30
2022-09-13T17:39:19.797Z,2.33
2022-09-13T17:43:22.447Z,2.30
2022-09-13T17:47:23.741Z,2.60
2022-09-13T17:51:25.832Z,2.10
2022-09-13T17:55:27.127Z,2.00
2022-09-13T17:59:29.931Z,2.30
2022-09-13T18:03:31.302Z,2.30
2022-09-13T18:07:32.685Z,2.70
2022-09-13T18:11:34.113Z,2.60
2022-09-13T18:15:36.708Z,2.13
2022-09-13T18:19:46.418Z,2.57
2022-09-13T18:23:48.946Z,2.30
2022-09-13T18:27:50.513Z,2.40
2022-09-13T18:31:53.253Z,2.40
2022-09-13T18:35:55.509Z,3.00
2022-09-13T18:39:56.855Z,2.50
2022-09-13T18:43:58.205Z,2.60
2022-09-13T18:48:00.829Z,2.30
2022-09-13T18:52:02.313Z,2.50
2022-09-13T18:56:04.536Z,2.60
2022-09-13T19:00:06.545Z,2.97
2022-09-13T19:04:11.565Z,3.00
2022-09-13T19:08:13.158Z,3.30
2022-09-13T19:12:14.848Z,3.00
2022-09-13T19:16:17.912Z,3.00
2022-09-13T19:20:20.924Z,3.07
2022-09-13T19:24:22.881Z,3.50
2022-09-13T19:28:25.005Z,3.50
2022-09-13T19:32:27.835Z,3.20
2022-09-13T19:36:34.316Z,2.80
2022-09-13T19:40:36.576Z,3.00
2022-09-13T19:44:38.228Z,3.40
2022-09-13T19:48:40.130Z,2.97
2022-09-13T19:52:42.964Z,3.17
2022-09-13T19:56:45.568Z,3.10
2022-09-13T20:00:47.017Z,3.50
2022-09-13T20:04:48.302Z,2.93
2022-09-13T20:08:51.127Z,2.60
2022-09-13T20:12:52.380Z,3.17
2022-09-13T20:16:53.821Z,2.80
2022-09-13T20:20:55.325Z,2.50
2022-09-13T20:24:58.044Z,2.67
2022-09-13T20:29:00.390Z,2.80
2022-09-13T20:33:01.797Z,2.23
2022-09-13T20:37:03.094Z,2.50
2022-09-13T20:41:06.195Z,2.50
2022-09-13T20:45:08.688Z,2.50
2022-09-13T20:49:09.935Z,2.50
2022-09-13T20:53:11.188Z,2.33
2022-09-13T20:57:13.988Z,2.07
2022-09-13T21:01:16.424Z,2.60
2022-09-13T21:05:18.445Z,2.50
2022-09-13T21:09:19.668Z,2.20
2022-09-13T21:13:22.694Z,1.90
2022-09-13T21:17:23.936Z,2.00
2022-09-13T21:21:26.156Z,2.70
2022-09-13T21:25:27.395Z,1.90
2022-09-13T21:29:30.180Z,2.00
2022-09-13T21:33:32.622Z,2.23
2022-09-13T21:37:33.884Z,2.20
2022-09-13T21:41:35.565Z,2.23
2022-09-13T21:45:38.332Z,2.20
2022-09-13T21:49:39.736Z,2.17
2022-09-13T21:53:40.959Z,2.67
2022-09-13T21:57:42.956Z,2.60
2022-09-13T22:01:46.523Z,2.90
2022-09-13T22:05:54.676Z,2.90
2022-09-13T22:09:55.900Z,2.63
2022-09-13T22:13:58.207Z,3.07
2022-09-13T22:18:00.784Z,2.40
2022-09-13T22:22:02.041Z,2.37
2022-09-13T22:26:04.497Z,2.50
2022-09-13T22:30:06.332Z,2.00
2022-09-13T22:34:11.100Z,1.80
2022-09-13T22:38:12.312Z,1.80
2022-09-13T22:42:13.536Z,1.87
2022-09-13T22:46:15.857Z,2.20
2022-09-13T22:50:18.616Z,2.17
2022-09-13T22:54:19.930Z,2.00
2022-09-13T22:58:21.201Z,2.23
2022-09-13T23:02:22.428Z,2.30
2022-09-13T23:06:25.584Z,2.33
2022-09-13T23:10:26.908Z,2.37
2022-09-13T23:14:28.137Z,2.10
2022-09-13T23:18:31.008Z,2.53
2022-09-13T23:22:33.596Z,2.63
2022-09-13T23:26:34.829Z,2.60
2022-09-13T23:30:36.573Z,3.00
2022-09-13T23:34:37.945Z,3.33
2022-09-13T23:38:40.848Z,4.00
2022-09-13T23:42:42.102Z,4.47
2022-09-13T23:46:43.768Z,4.37
2022-09-13T23:50:45.772Z,5.40
2022-09-13T23:54:48.372Z,7.73
2022-09-13T23:58:49.820Z,8.47
